Etusivu
METAR-TAF:

METAR-TAF

Lentoasemat :

Karup, Tanska

Leveyspiiri: 56-18N, Pituuspiiri: 009-07E, korkeus merenpinnasta: 52 m

Tämänhetkinen sää

Tämä raportti tehtiin 15 minuuttia sitten, kello 09.50 UTC
Tuuli 8 kn lounaasta
Lämpötila 24°C
Kosteus 57%
Ilmanpaine 1022 hPa
Näkyvyys 10 km tai enemmän

METAR: EKKA 270950Z AUTO 23008KT 9999NDV NCD 24/15 Q1022

Aika: 12:05 (10:05 UTC)

Sääennuste

Tämä raportti tehtiin 1 tunti ja 38 minuuttia sitten, kello 08.27 UTC
Ennuste voimassa 27. päivästä klo 09 UTC - 28. päivään klo 06 UTC
Tuuli 8 kn lounaasta
Näkyvyys 10 km tai enemmän
Muutamia pilviä 20000 ft:n korkeudessa
Tulossa
27. päivästä klo 13 UTC - 27. päivään klo 16 UTC
Tuuli 8 kn etelästä/kaakosta

TAF: EKKA 270827Z 2709/2806 22008KT 9999 FEW200 BECMG 2713/2716 16008KT

Säähavainnot ja -ennusteet yli 4000 lentoasemalta (METAR- ja TAF-raportit).

Käytössä olevat sääasemat on merkitty karttaan keltaisilla ja punaisilla pisteillä.

Aseta hiiri pisteen päälle nähdäksesi sääaseman nimen.

Klikkaa sitten nähdäksesi säähavainnot ja -ennusteet.

Kartan vaihtaminen: klikkaa mustalla rastilla varustettuja vihreitä pisteitä, niin voit zoomata sisään; viivalla varustettua vihreää pistettä, niin voit zoomata ulos tai vihreitä nuolia, niin pääset viereisille kartoille.


METAR-TAF: